Higgins Bay, New York
Current Conditions -  °F | °C
As of 7:35 PM on Monday 24 Nov 2014 (Local Time) from KNY0 Reporting Station
Scattered Clouds Scattered Clouds  
Wind Chill: 62°   Ceiling: Unl
Heat Index: 62°   Visibility: 10mi
Dew Point: 48°   Wind: 21mph
Humidity: 60%   Direction: 220°SW
Pressure: 29.53"   Gusts: 26mph
Location:  43.5523°N, 74.4387°W
Report Text: KNY0 250035Z AUTO 22018G23KT 10SM SCT060 16/09 A2953 RMK AO2 T01640087
Loading
Personal Weather Stations






























Interactive Weather Map New forecast layout! Learn more

10-Day Weather Forecast

Advertisements
Track Severe Weather on mobile